Terminal Aerodrome Forecast
Issued by NWS Blacksburg, VA

Current Version | Previous Version | Graphics & Text | Print | Product List | Glossary On
Versions: 1 2 3 4 5 6 7 8 9 10 11 12 13 14 15 16 17 18 19 20 21 22 23 24
000
FTUS41 KRNK 250358 AAA
TAFBLF
TAF AMD
KBLF 250358Z 2504/2524 28011G22KT P6SM -RA OVC005
     FM251000 29015G28KT 6SM -SHRASN OVC008
     FM251800 28010G20KT P6SM BKN025
     FM252200 27007KT P6SM SCT030=

USA.gov is the U.S. government's official web portal to all federal, state and local government web resources and services.